sensor_id;sensor_type;location;lat;lon;timestamp;pressure;altitude;pressure_sealevel;temperature;humidity
54816;BME280;40715;55.752;37.884;2024-03-02T00:00:08;100268.56;;;29.46;26.01
54816;BME280;40715;55.752;37.884;2024-03-02T00:02:41;100260.84;;;29.51;26.11
54816;BME280;40715;55.752;37.884;2024-03-02T00:05:11;100265.72;;;29.48;26.15
54816;BME280;40715;55.752;37.884;2024-03-02T00:07:43;100254.84;;;29.48;26.11
54816;BME280;40715;55.752;37.884;2024-03-02T00:10:14;100259.41;;;29.47;25.99
54816;BME280;40715;55.752;37.884;2024-03-02T00:12:47;100255.84;;;29.47;26.18
54816;BME280;40715;55.752;37.884;2024-03-02T00:17:57;100253.13;;;29.47;25.89
54816;BME280;40715;55.752;37.884;2024-03-02T00:20:25;100258.56;;;29.47;25.95
54816;BME280;40715;55.752;37.884;2024-03-02T00:23:02;100255.00;;;29.46;26.02
54816;BME280;40715;55.752;37.884;2024-03-02T00:25:50;100258.28;;;29.59;25.80
54816;BME280;40715;55.752;37.884;2024-03-02T00:28:23;100250.41;;;29.47;25.78
54816;BME280;40715;55.752;37.884;2024-03-02T00:30:55;100252.44;;;29.44;25.60
54816;BME280;40715;55.752;37.884;2024-03-02T00:33:36;100258.13;;;29.51;25.95
54816;BME280;40715;55.752;37.884;2024-03-02T00:36:04;100252.28;;;29.46;25.58
54816;BME280;40715;55.752;37.884;2024-03-02T00:38:32;100247.69;;;29.47;25.59
54816;BME280;40715;55.752;37.884;2024-03-02T00:41:04;100252.28;;;29.46;25.52
54816;BME280;40715;55.752;37.884;2024-03-02T00:46:11;100255.00;;;29.46;25.70
54816;BME280;40715;55.752;37.884;2024-03-02T00:48:45;100249.72;;;29.44;25.88
54816;BME280;40715;55.752;37.884;2024-03-02T00:51:14;100251.84;;;29.51;25.56
54816;BME280;40715;55.752;37.884;2024-03-02T00:53:41;100251.41;;;29.46;25.49
54816;BME280;40715;55.752;37.884;2024-03-02T00:56:11;100254.25;;;29.44;25.57
54816;BME280;40715;55.752;37.884;2024-03-02T00:58:39;100255.84;;;29.47;25.58
54816;BME280;40715;55.752;37.884;2024-03-02T01:01:06;100249.56;;;29.46;25.73
54816;BME280;40715;55.752;37.884;2024-03-02T01:03:34;100253.28;;;29.45;25.70
54816;BME280;40715;55.752;37.884;2024-03-02T01:06:01;100257.56;;;29.48;25.49
54816;BME280;40715;55.752;37.884;2024-03-02T01:08:29;100258.56;;;29.47;25.65
54816;BME280;40715;55.752;37.884;2024-03-02T01:10:56;100260.28;;;29.48;25.65
54816;BME280;40715;55.752;37.884;2024-03-02T01:13:23;100253.13;;;29.47;25.35
54816;BME280;40715;55.752;37.884;2024-03-02T01:15:50;100259.25;;;29.49;25.56
54816;BME280;40715;55.752;37.884;2024-03-02T01:18:18;100261.97;;;29.49;25.58
54816;BME280;40715;55.752;37.884;2024-03-02T01:20:45;100264.69;;;29.49;25.68
54816;BME280;40715;55.752;37.884;2024-03-02T01:23:12;100263.69;;;29.50;25.51
54816;BME280;40715;55.752;37.884;2024-03-02T01:25:39;100264.69;;;29.49;25.35
54816;BME280;40715;55.752;37.884;2024-03-02T01:28:06;100257.56;;;29.48;25.38
54816;BME280;40715;55.752;37.884;2024-03-02T01:30:33;100251.41;;;29.46;25.33
54816;BME280;40715;55.752;37.884;2024-03-02T01:33:01;100258.28;;;29.50;25.36
54816;BME280;40715;55.752;37.884;2024-03-02T01:35:29;100271.00;;;29.49;25.30
54816;BME280;40715;55.752;37.884;2024-03-02T01:37:56;100263.84;;;29.48;25.42
54816;BME280;40715;55.752;37.884;2024-03-02T01:40:23;100261.97;;;29.49;25.24
54816;BME280;40715;55.752;37.884;2024-03-02T01:42:53;100263.13;;;29.46;25.39
54816;BME280;40715;55.752;37.884;2024-03-02T01:45:21;100271.13;;;29.48;25.19
54816;BME280;40715;55.752;37.884;2024-03-02T01:47:49;100269.28;;;29.48;25.30
54816;BME280;40715;55.752;37.884;2024-03-02T01:50:16;100270.25;;;29.47;25.05
54816;BME280;40715;55.752;37.884;2024-03-02T01:52:51;100267.41;;;29.49;25.39
54816;BME280;40715;55.752;37.884;2024-03-02T01:55:18;100259.84;;;29.42;25.38
54816;BME280;40715;55.752;37.884;2024-03-02T01:57:45;100272.84;;;29.49;25.16
54816;BME280;40715;55.752;37.884;2024-03-02T02:00:12;100271.97;;;29.48;25.21
54816;BME280;40715;55.752;37.884;2024-03-02T02:02:39;100274.00;;;29.46;25.23
54816;BME280;40715;55.752;37.884;2024-03-02T02:05:07;100287.44;;;29.48;25.36
54816;BME280;40715;55.752;37.884;2024-03-02T02:07:34;100277.56;;;29.47;25.52
54816;BME280;40715;55.752;37.884;2024-03-02T02:10:02;100280.13;;;29.48;25.11
54816;BME280;40715;55.752;37.884;2024-03-02T02:12:31;100278.25;;;29.49;25.35
54816;BME280;40715;55.752;37.884;2024-03-02T02:14:58;100280.97;;;29.49;25.35
54816;BME280;40715;55.752;37.884;2024-03-02T02:17:26;100279.28;;;29.48;25.22
54816;BME280;40715;55.752;37.884;2024-03-02T02:19:53;100285.69;;;29.47;25.44
54816;BME280;40715;55.752;37.884;2024-03-02T02:22:20;100280.28;;;29.47;24.92
54816;BME280;40715;55.752;37.884;2024-03-02T02:24:47;100282.00;;;29.48;25.24
54816;BME280;40715;55.752;37.884;2024-03-02T02:27:14;100287.56;;;29.46;25.12
54816;BME280;40715;55.752;37.884;2024-03-02T02:29:42;100282.84;;;29.48;25.08
54816;BME280;40715;55.752;37.884;2024-03-02T02:32:09;100288.41;;;29.47;25.05
54816;BME280;40715;55.752;37.884;2024-03-02T02:34:36;100285.00;;;29.44;25.17
54816;BME280;40715;55.752;37.884;2024-03-02T02:37:03;100283.41;;;29.42;24.97
54816;BME280;40715;55.752;37.884;2024-03-02T02:39:30;100294.13;;;29.43;25.16
54816;BME280;40715;55.752;37.884;2024-03-02T02:41:57;100297.69;;;29.44;25.14
54816;BME280;40715;55.752;37.884;2024-03-02T02:44:24;100299.56;;;29.43;25.16
54816;BME280;40715;55.752;37.884;2024-03-02T02:46:51;100296.84;;;29.43;25.31
54816;BME280;40715;55.752;37.884;2024-03-02T02:49:18;100303.13;;;29.44;25.04
54816;BME280;40715;55.752;37.884;2024-03-02T02:51:45;100298.81;;;29.41;25.36
54816;BME280;40715;55.752;37.884;2024-03-02T02:54:12;100296.25;;;29.40;25.08
54816;BME280;40715;55.752;37.884;2024-03-02T02:56:39;100291.69;;;29.40;25.23
54816;BME280;40715;55.752;37.884;2024-03-02T02:59:06;100288.09;;;29.40;25.41
54816;BME280;40715;55.752;37.884;2024-03-02T03:01:33;100288.84;;;29.42;25.46
54816;BME280;40715;55.752;37.884;2024-03-02T03:04:01;100286.13;;;29.42;25.47
54816;BME280;40715;55.752;37.884;2024-03-02T03:06:28;100291.56;;;29.42;25.38
54816;BME280;40715;55.752;37.884;2024-03-02T03:08:55;100287.97;;;29.41;25.40
54816;BME280;40715;55.752;37.884;2024-03-02T03:11:22;100293.41;;;29.41;25.49
54816;BME280;40715;55.752;37.884;2024-03-02T03:13:49;100287.81;;;29.43;25.45
54816;BME280;40715;55.752;37.884;2024-03-02T03:16:16;100278.84;;;29.42;25.52
54816;BME280;40715;55.752;37.884;2024-03-02T03:18:43;100281.41;;;29.44;25.42
54816;BME280;40715;55.752;37.884;2024-03-02T03:21:10;100287.81;;;29.43;25.47
54816;BME280;40715;55.752;37.884;2024-03-02T03:23:37;100294.13;;;29.43;25.30
54816;BME280;40715;55.752;37.884;2024-03-02T03:26:04;100292.41;;;29.42;25.34
54816;BME280;40715;55.752;37.884;2024-03-02T03:28:31;100293.25;;;29.43;25.11
54816;BME280;40715;55.752;37.884;2024-03-02T03:30:58;100297.53;;;29.46;25.24
54816;BME280;40715;55.752;37.884;2024-03-02T03:33:25;100294.84;;;29.46;25.18
54816;BME280;40715;55.752;37.884;2024-03-02T03:35:52;100290.44;;;29.44;25.25
54816;BME280;40715;55.752;37.884;2024-03-02T03:38:20;100292.13;;;29.46;25.23
54816;BME280;40715;55.752;37.884;2024-03-02T03:40:47;100287.44;;;29.48;25.31
54816;BME280;40715;55.752;37.884;2024-03-02T03:43:14;100285.56;;;29.48;25.04
54816;BME280;40715;55.752;37.884;2024-03-02T03:45:41;100285.56;;;29.48;25.31
54816;BME280;40715;55.752;37.884;2024-03-02T03:48:08;100278.16;;;29.50;25.10
54816;BME280;40715;55.752;37.884;2024-03-02T03:50:35;100287.13;;;29.51;25.16
54816;BME280;40715;55.752;37.884;2024-03-02T03:53:02;100284.44;;;29.51;25.09
54816;BME280;40715;55.752;37.884;2024-03-02T03:55:29;100287.13;;;29.51;24.89
54816;BME280;40715;55.752;37.884;2024-03-02T03:57:56;100279.84;;;29.51;24.76
54816;BME280;40715;55.752;37.884;2024-03-02T04:00:24;100287.13;;;29.51;24.92
54816;BME280;40715;55.752;37.884;2024-03-02T04:02:51;100285.84;;;29.55;24.81
54816;BME280;40715;55.752;37.884;2024-03-02T04:05:18;100289.56;;;29.54;24.89
54816;BME280;40715;55.752;37.884;2024-03-02T04:07:45;100289.56;;;29.54;24.70
54816;BME280;40715;55.752;37.884;2024-03-02T04:10:12;100290.41;;;29.54;24.61
54816;BME280;40715;55.752;37.884;2024-03-02T04:12:39;100292.13;;;29.55;24.67
54816;BME280;40715;55.752;37.884;2024-03-02T04:15:07;100292.13;;;29.55;24.59
54816;BME280;40715;55.752;37.884;2024-03-02T04:17:34;100296.72;;;29.55;24.49
54816;BME280;40715;55.752;37.884;2024-03-02T04:20:03;100286.00;;;29.53;24.68
54816;BME280;40715;55.752;37.884;2024-03-02T04:22:33;100284.97;;;29.54;24.52
54816;BME280;40715;55.752;37.884;2024-03-02T04:25:02;100292.13;;;29.55;24.46
54816;BME280;40715;55.752;37.884;2024-03-02T04:27:31;100289.72;;;29.52;24.46
54816;BME280;40715;55.752;37.884;2024-03-02T04:30:00;100291.72;;;29.50;24.49
54816;BME280;40715;55.752;37.884;2024-03-02T04:32:28;100286.41;;;29.49;24.24
54816;BME280;40715;55.752;37.884;2024-03-02T04:34:55;100294.53;;;29.49;24.56
54816;BME280;40715;55.752;37.884;2024-03-02T04:37:22;100283.84;;;29.47;24.64
54816;BME280;40715;55.752;37.884;2024-03-02T04:39:49;100302.69;;;29.49;24.65
54816;BME280;40715;55.752;37.884;2024-03-02T04:42:16;100291.13;;;29.47;24.69
54816;BME280;40715;55.752;37.884;2024-03-02T04:44:43;100297.41;;;29.47;24.92
54816;BME280;40715;55.752;37.884;2024-03-02T04:47:10;100288.28;;;29.48;24.85
54816;BME280;40715;55.752;37.884;2024-03-02T04:49:37;100293.84;;;29.47;24.86
54816;BME280;40715;55.752;37.884;2024-03-02T04:52:04;100296.56;;;29.47;24.82
54816;BME280;40715;55.752;37.884;2024-03-02T04:54:31;100295.44;;;29.49;24.75
54816;BME280;40715;55.752;37.884;2024-03-02T04:56:58;100290.84;;;29.50;25.24
54816;BME280;40715;55.752;37.884;2024-03-02T04:59:25;100292.84;;;29.48;25.17
54816;BME280;40715;55.752;37.884;2024-03-02T05:01:52;100290.13;;;29.48;25.31
54816;BME280;40715;55.752;37.884;2024-03-02T05:04:19;100292.13;;;29.46;25.49
54816;BME280;40715;55.752;37.884;2024-03-02T05:06:46;100289.25;;;29.47;25.64
54816;BME280;40715;55.752;37.884;2024-03-02T05:09:20;100285.84;;;29.45;25.55
54816;BME280;40715;55.752;37.884;2024-03-02T05:11:47;100285.84;;;29.45;25.65
54816;BME280;40715;55.752;37.884;2024-03-02T05:14:42;100286.84;;;29.44;25.71
54816;BME280;40715;55.752;37.884;2024-03-02T05:17:09;100286.97;;;29.42;25.45
54816;BME280;40715;55.752;37.884;2024-03-02T05:19:36;100292.41;;;29.42;25.66
54816;BME280;40715;55.752;37.884;2024-03-02T05:22:03;100289.00;;;29.40;25.50
54816;BME280;40715;55.752;37.884;2024-03-02T05:24:31;100289.97;;;29.39;25.53
54816;BME280;40715;55.752;37.884;2024-03-02T05:26:58;100298.97;;;29.40;25.31
54816;BME280;40715;55.752;37.884;2024-03-02T05:29:25;100290.97;;;29.38;25.54
54816;BME280;40715;55.752;37.884;2024-03-02T05:31:52;100287.41;;;29.38;25.41
54816;BME280;40715;55.752;37.884;2024-03-02T05:34:19;100286.66;;;29.36;25.35
54816;BME280;40715;55.752;37.884;2024-03-02T05:36:46;100289.38;;;29.36;25.49
54816;BME280;40715;55.752;37.884;2024-03-02T05:39:13;100290.13;;;29.38;25.52
54816;BME280;40715;55.752;37.884;2024-03-02T05:41:40;100296.69;;;29.35;25.20
54816;BME280;40715;55.752;37.884;2024-03-02T05:44:08;100293.97;;;29.35;25.43
54816;BME280;40715;55.752;37.884;2024-03-02T05:46:35;100297.66;;;29.34;25.19
54816;BME280;40715;55.752;37.884;2024-03-02T05:49:04;100305.94;;;29.33;25.31
54816;BME280;40715;55.752;37.884;2024-03-02T05:51:31;100300.66;;;29.31;25.14
54816;BME280;40715;55.752;37.884;2024-03-02T05:53:58;100307.97;;;29.31;25.33
54816;BME280;40715;55.752;37.884;2024-03-02T05:56:25;100306.97;;;29.32;25.22
54816;BME280;40715;55.752;37.884;2024-03-02T05:58:52;100302.53;;;29.31;25.17
54816;BME280;40715;55.752;37.884;2024-03-02T06:01:44;100306.97;;;29.32;25.42
54816;BME280;40715;55.752;37.884;2024-03-02T06:04:11;100309.69;;;29.32;25.35
54816;BME280;40715;55.752;37.884;2024-03-02T06:06:39;100311.66;;;29.30;25.30
54816;BME280;40715;55.752;37.884;2024-03-02T06:09:07;100303.38;;;29.31;25.20
54816;BME280;40715;55.752;37.884;2024-03-02T06:11:35;100308.81;;;29.31;25.31
54816;BME280;40715;55.752;37.884;2024-03-02T06:14:04;100316.09;;;29.31;25.07
54816;BME280;40715;55.752;37.884;2024-03-02T06:16:31;100314.09;;;29.33;25.41
54816;BME280;40715;55.752;37.884;2024-03-02T06:18:59;100313.38;;;29.31;25.36
54816;BME280;40715;55.752;37.884;2024-03-02T06:21:27;100311.38;;;29.33;25.31
54816;BME280;40715;55.752;37.884;2024-03-02T06:23:54;100307.97;;;29.31;25.24
54816;BME280;40715;55.752;37.884;2024-03-02T06:26:21;100304.13;;;29.33;25.00
54816;BME280;40715;55.752;37.884;2024-03-02T06:28:51;100303.38;;;29.31;25.03
54816;BME280;40715;55.752;37.884;2024-03-02T06:31:18;100304.81;;;29.35;25.10
54816;BME280;40715;55.752;37.884;2024-03-02T06:33:45;100305.81;;;29.34;25.07
54816;BME280;40715;55.752;37.884;2024-03-02T06:36:13;100308.81;;;29.31;25.15
54816;BME280;40715;55.752;37.884;2024-03-02T06:38:42;100312.81;;;29.37;25.06
54816;BME280;40715;55.752;37.884;2024-03-02T06:41:09;100309.25;;;29.36;25.14
54816;BME280;40715;55.752;37.884;2024-03-02T06:43:36;100308.38;;;29.36;24.98
54816;BME280;40715;55.752;37.884;2024-03-02T06:46:05;100307.41;;;29.37;25.00
54816;BME280;40715;55.752;37.884;2024-03-02T06:48:33;100312.97;;;29.35;24.73
54816;BME280;40715;55.752;37.884;2024-03-02T06:51:00;100317.41;;;29.36;24.91
54816;BME280;40715;55.752;37.884;2024-03-02T06:53:28;100312.69;;;29.38;24.92
54816;BME280;40715;55.752;37.884;2024-03-02T06:55:55;100321.97;;;29.46;25.05
54816;BME280;40715;55.752;37.884;2024-03-02T06:58:22;100315.13;;;29.51;25.07
54816;BME280;40715;55.752;37.884;2024-03-02T07:00:49;100317.44;;;29.56;25.08
54816;BME280;40715;55.752;37.884;2024-03-02T07:03:16;100317.31;;;29.57;25.07
54816;BME280;40715;55.752;37.884;2024-03-02T07:05:43;100317.59;;;29.64;25.43
54816;BME280;40715;55.752;37.884;2024-03-02T07:08:10;100318.59;;;29.63;25.14
54816;BME280;40715;55.752;37.884;2024-03-02T07:10:37;100325.88;;;29.63;24.91
54816;BME280;40715;55.752;37.884;2024-03-02T07:13:04;100316.28;;;29.58;24.92
54816;BME280;40715;55.752;37.884;2024-03-02T07:15:31;100321.16;;;29.55;24.97
54816;BME280;40715;55.752;37.884;2024-03-02T07:18:18;100326.78;;;30.12;24.26
54816;BME280;40715;55.752;37.884;2024-03-02T07:20:45;100320.28;;;29.64;24.83
54816;BME280;40715;55.752;37.884;2024-03-02T07:23:12;100313.44;;;29.50;24.92
54816;BME280;40715;55.752;37.884;2024-03-02T07:25:39;100323.84;;;29.45;24.97
54816;BME280;40715;55.752;37.884;2024-03-02T07:28:09;100320.84;;;29.48;24.83
54816;BME280;40715;55.752;37.884;2024-03-02T07:30:36;100316.53;;;29.46;25.02
54816;BME280;40715;55.752;37.884;2024-03-02T07:33:05;100313.00;;;29.45;24.77
54816;BME280;40715;55.752;37.884;2024-03-02T07:35:33;100312.00;;;29.46;24.63
54816;BME280;40715;55.752;37.884;2024-03-02T07:38:00;100315.56;;;29.47;24.70
54816;BME280;40715;55.752;37.884;2024-03-02T07:40:27;100312.00;;;29.46;24.80
54816;BME280;40715;55.752;37.884;2024-03-02T07:42:54;100306.97;;;29.41;24.70
54816;BME280;40715;55.752;37.884;2024-03-02T07:45:22;100307.84;;;29.42;24.56
54816;BME280;40715;55.752;37.884;2024-03-02T07:47:49;100309.69;;;29.41;24.79
54816;BME280;40715;55.752;37.884;2024-03-02T07:50:16;100296.09;;;29.41;24.77
54816;BME280;40715;55.752;37.884;2024-03-02T07:52:43;100303.25;;;29.42;24.71
54816;BME280;40715;55.752;37.884;2024-03-02T07:55:11;100302.41;;;29.42;24.47
54816;BME280;40715;55.752;37.884;2024-03-02T07:57:38;100307.56;;;29.45;24.95
54816;BME280;40715;55.752;37.884;2024-03-02T08:00:06;100307.28;;;29.48;24.98
54816;BME280;40715;55.752;37.884;2024-03-02T08:02:33;100298.84;;;29.51;24.87
54816;BME280;40715;55.752;37.884;2024-03-02T08:05:00;100306.44;;;29.57;25.36
54816;BME280;40715;55.752;37.884;2024-03-02T08:07:29;100310.56;;;29.61;25.12
54816;BME280;40715;55.752;37.884;2024-03-02T08:09:56;100310.16;;;29.66;25.41
54816;BME280;40715;55.752;37.884;2024-03-02T08:12:23;100309.72;;;29.71;25.56
54816;BME280;40715;55.752;37.884;2024-03-02T08:14:50;100310.19;;;29.76;25.96
54816;BME280;40715;55.752;37.884;2024-03-02T08:17:17;100300.88;;;29.78;25.94
54816;BME280;40715;55.752;37.884;2024-03-02T08:19:44;100299.47;;;29.84;26.03
54816;BME280;40715;55.752;37.884;2024-03-02T08:22:12;100298.03;;;29.90;25.64
54816;BME280;40715;55.752;37.884;2024-03-02T08:24:39;100301.63;;;29.90;25.68
54816;BME280;40715;55.752;37.884;2024-03-02T08:27:06;100303.22;;;29.93;25.55
54816;BME280;40715;55.752;37.884;2024-03-02T08:29:33;100301.06;;;29.97;25.25
54816;BME280;40715;55.752;37.884;2024-03-02T08:32:00;100299.91;;;29.99;25.26
54816;BME280;40715;55.752;37.884;2024-03-02T08:34:27;100304.06;;;30.03;25.15
54816;BME280;40715;55.752;37.884;2024-03-02T08:36:54;100302.94;;;30.06;24.80
54816;BME280;40715;55.752;37.884;2024-03-02T08:39:21;100303.47;;;30.09;25.09
54816;BME280;40715;55.752;37.884;2024-03-02T08:41:49;100307.03;;;30.10;24.97
54816;BME280;40715;55.752;37.884;2024-03-02T08:44:16;100310.50;;;30.12;24.92
54816;BME280;40715;55.752;37.884;2024-03-02T08:46:43;100309.34;;;30.15;24.82
54816;BME280;40715;55.752;37.884;2024-03-02T08:49:12;100302.47;;;30.20;24.77
54816;BME280;40715;55.752;37.884;2024-03-02T08:51:40;100303.91;;;30.24;24.81
54816;BME280;40715;55.752;37.884;2024-03-02T08:54:08;100302.88;;;30.25;24.83
54816;BME280;40715;55.752;37.884;2024-03-02T08:56:35;100300.88;;;30.27;24.55
54816;BME280;40715;55.752;37.884;2024-03-02T08:59:03;100307.31;;;30.26;24.60
54816;BME280;40715;55.752;37.884;2024-03-02T09:01:30;100303.59;;;30.27;24.65
54816;BME280;40715;55.752;37.884;2024-03-02T09:03:57;100308.75;;;30.30;24.58
54816;BME280;40715;55.752;37.884;2024-03-02T09:06:24;100299.59;;;30.32;24.38
54816;BME280;40715;55.752;37.884;2024-03-02T09:08:51;100297.03;;;30.30;24.51
54816;BME280;40715;55.752;37.884;2024-03-02T09:11:18;100299.44;;;30.33;24.40
54816;BME280;40715;55.752;37.884;2024-03-02T09:13:45;100301.59;;;30.29;24.24
54816;BME280;40715;55.752;37.884;2024-03-02T09:16:12;100302.72;;;30.27;24.19
54816;BME280;40715;55.752;37.884;2024-03-02T09:18:39;100303.31;;;30.21;24.24
54816;BME280;40715;55.752;37.884;2024-03-02T09:21:06;100303.63;;;30.18;24.20
54816;BME280;40715;55.752;37.884;2024-03-02T09:23:34;100302.88;;;30.16;24.23
54816;BME280;40715;55.752;37.884;2024-03-02T09:26:01;100303.75;;;30.16;24.61
54816;BME280;40715;55.752;37.884;2024-03-02T09:28:28;100305.50;;;30.17;24.27
54816;BME280;40715;55.752;37.884;2024-03-02T09:30:55;100301.91;;;30.17;24.28
54816;BME280;40715;55.752;37.884;2024-03-02T09:33:24;100301.59;;;30.20;24.09
54816;BME280;40715;55.752;37.884;2024-03-02T09:35:52;100296.31;;;30.18;23.76
54816;BME280;40715;55.752;37.884;2024-03-02T09:38:20;100302.63;;;30.19;22.90
54816;BME280;40715;55.752;37.884;2024-03-02T09:40:48;100291.16;;;30.15;22.79
54816;BME280;40715;55.752;37.884;2024-03-02T09:43:16;100282.47;;;30.11;22.26
54816;BME280;40715;55.752;37.884;2024-03-02T09:45:44;100286.47;;;30.07;21.45
54816;BME280;40715;55.752;37.884;2024-03-02T09:48:11;100292.75;;;30.08;21.45
54816;BME280;40715;55.752;37.884;2024-03-02T09:50:38;100292.91;;;30.06;21.55
54816;BME280;40715;55.752;37.884;2024-03-02T09:53:07;100286.72;;;30.04;21.39
54816;BME280;40715;55.752;37.884;2024-03-02T09:55:35;100280.31;;;30.05;21.36
54816;BME280;40715;55.752;37.884;2024-03-02T09:58:03;100284.03;;;30.04;21.15
54816;BME280;40715;55.752;37.884;2024-03-02T10:00:30;100284.03;;;30.04;20.71
54816;BME280;40715;55.752;37.884;2024-03-02T10:02:57;100279.75;;;30.02;20.80
54816;BME280;40715;55.752;37.884;2024-03-02T10:05:26;100291.63;;;30.01;20.83
54816;BME280;40715;55.752;37.884;2024-03-02T10:08:02;100283.19;;;30.04;20.75
54816;BME280;40715;55.752;37.884;2024-03-02T10:10:39;100284.47;;;30.09;20.74
54816;BME280;40715;55.752;37.884;2024-03-02T10:13:11;100282.19;;;30.05;20.64
54816;BME280;40715;55.752;37.884;2024-03-02T10:15:40;100285.03;;;30.03;20.47
54816;BME280;40715;55.752;37.884;2024-03-02T10:18:11;100282.03;;;30.06;20.31
54816;BME280;40715;55.752;37.884;2024-03-02T10:20:40;100276.75;;;30.15;20.04
54816;BME280;40715;55.752;37.884;2024-03-02T10:25:38;100286.44;;;30.27;19.85
54816;BME280;40715;55.752;37.884;2024-03-02T10:28:09;100280.59;;;30.22;20.06
54816;BME280;40715;55.752;37.884;2024-03-02T10:30:36;100276.16;;;30.21;19.86
54816;BME280;40715;55.752;37.884;2024-03-02T10:33:05;100275.88;;;30.14;19.76
54816;BME280;40715;55.752;37.884;2024-03-02T10:35:32;100269.44;;;30.15;19.75
54816;BME280;40715;55.752;37.884;2024-03-02T10:38:05;100270.44;;;30.14;19.85
54816;BME280;40715;55.752;37.884;2024-03-02T10:40:33;100282.88;;;30.17;20.40
54816;BME280;40715;55.752;37.884;2024-03-02T10:43:01;100282.31;;;30.13;19.95
54816;BME280;40715;55.752;37.884;2024-03-02T10:45:31;100279.75;;;30.11;19.95
54816;BME280;40715;55.752;37.884;2024-03-02T10:48:01;100285.44;;;30.08;20.01
54816;BME280;40715;55.752;37.884;2024-03-02T10:50:30;100303.91;;;30.05;19.52
54816;BME280;40715;55.752;37.884;2024-03-02T10:52:57;100292.16;;;30.04;19.74
54816;BME280;40715;55.752;37.884;2024-03-02T10:55:24;100296.75;;;30.04;19.58
54816;BME280;40715;55.752;37.884;2024-03-02T10:57:53;100298.19;;;29.98;19.44
54816;BME280;40715;55.752;37.884;2024-03-02T11:00:24;100289.50;;;29.94;19.97
54816;BME280;40715;55.752;37.884;2024-03-02T11:03:00;100291.19;;;29.95;19.93
54816;BME280;40715;55.752;37.884;2024-03-02T11:05:33;100291.91;;;29.98;19.68
54816;BME280;40715;55.752;37.884;2024-03-02T11:08:02;100295.19;;;29.91;19.48
54816;BME280;40715;55.752;37.884;2024-03-02T11:10:36;100283.91;;;29.86;19.19
54816;BME280;40715;55.752;37.884;2024-03-02T11:13:11;100282.91;;;29.87;19.26
54816;BME280;40715;55.752;37.884;2024-03-02T11:15:40;100279.72;;;29.82;19.26
54816;BME280;40715;55.752;37.884;2024-03-02T11:18:09;100284.19;;;29.83;19.73
54816;BME280;40715;55.752;37.884;2024-03-02T11:20:38;100284.19;;;29.83;19.64
54816;BME280;40715;55.752;37.884;2024-03-02T11:23:07;100284.47;;;29.80;19.63
54816;BME280;40715;55.752;37.884;2024-03-02T11:25:35;100283.19;;;29.84;19.51
54816;BME280;40715;55.752;37.884;2024-03-02T11:28:07;100282.19;;;29.85;19.73
54816;BME280;40715;55.752;37.884;2024-03-02T11:33:07;100293.03;;;29.85;19.51
54816;BME280;40715;55.752;37.884;2024-03-02T11:35:42;100286.78;;;29.85;19.08
54816;BME280;40715;55.752;37.884;2024-03-02T11:38:10;100287.75;;;29.84;19.31
54816;BME280;40715;55.752;37.884;2024-03-02T11:40:39;100284.31;;;29.82;19.02
54816;BME280;40715;55.752;37.884;2024-03-02T11:43:07;100287.88;;;29.82;18.86
54816;BME280;40715;55.752;37.884;2024-03-02T11:45:37;100291.31;;;29.84;18.74
54816;BME280;40715;55.752;37.884;2024-03-02T11:48:13;100288.72;;;29.83;18.66
54816;BME280;40715;55.752;37.884;2024-03-02T11:50:49;100280.56;;;29.83;18.87
54816;BME280;40715;55.752;37.884;2024-03-02T11:53:17;100289.47;;;29.85;18.32
54816;BME280;40715;55.752;37.884;2024-03-02T11:55:45;100292.47;;;29.82;18.36
54816;BME280;40715;55.752;37.884;2024-03-02T11:58:14;100281.59;;;29.82;18.42
54816;BME280;40715;55.752;37.884;2024-03-02T12:00:43;100287.88;;;29.82;18.61
54816;BME280;40715;55.752;37.884;2024-03-02T12:03:12;100285.31;;;29.81;18.85
54816;BME280;40715;55.752;37.884;2024-03-02T12:05:40;100291.44;;;29.83;19.31
54816;BME280;40715;55.752;37.884;2024-03-02T12:08:08;100295.06;;;29.83;19.43
54816;BME280;40715;55.752;37.884;2024-03-02T12:10:36;100293.19;;;29.84;19.75
54816;BME280;40715;55.752;37.884;2024-03-02T12:13:05;100293.03;;;29.85;19.71
54816;BME280;40715;55.752;37.884;2024-03-02T12:15:39;100280.88;;;29.79;19.64
54816;BME280;40715;55.752;37.884;2024-03-02T12:18:07;100296.34;;;29.89;20.02
54816;BME280;40715;55.752;37.884;2024-03-02T12:20:34;100286.47;;;29.88;20.27
54816;BME280;40715;55.752;37.884;2024-03-02T12:23:04;100283.75;;;29.88;20.42
54816;BME280;40715;55.752;37.884;2024-03-02T12:25:32;100284.75;;;29.87;20.04
54816;BME280;40715;55.752;37.884;2024-03-02T12:28:02;100293.50;;;29.90;20.49
54816;BME280;40715;55.752;37.884;2024-03-02T12:30:30;100290.19;;;29.87;20.54
54816;BME280;40715;55.752;37.884;2024-03-02T12:32:58;100297.34;;;29.88;20.49
54816;BME280;40715;55.752;37.884;2024-03-02T12:35:25;100296.50;;;29.87;20.44
54816;BME280;40715;55.752;37.884;2024-03-02T12:37:54;100300.19;;;29.86;20.44
54816;BME280;40715;55.752;37.884;2024-03-02T12:40:21;100293.78;;;29.87;20.64
54816;BME280;40715;55.752;37.884;2024-03-02T12:42:50;100293.03;;;29.85;20.83
54816;BME280;40715;55.752;37.884;2024-03-02T12:45:17;100295.47;;;29.88;20.68
54816;BME280;40715;55.752;37.884;2024-03-02T12:47:51;100300.91;;;29.88;20.87
54816;BME280;40715;55.752;37.884;2024-03-02T12:50:19;100299.31;;;29.86;20.92
54816;BME280;40715;55.752;37.884;2024-03-02T12:52:53;100299.56;;;29.43;19.88
54816;BME280;40715;55.752;37.884;2024-03-02T12:55:22;100294.16;;;28.72;19.75